sensor_id;sensor_type;location;lat;lon;timestamp;P1;durP1;ratioP1;P2;durP2;ratioP2
39094;SDS011;24840;47.508;19.376;2023-02-26T00:01:19;7.47;;;2.83;;
39094;SDS011;24840;47.508;19.376;2023-02-26T00:03:52;3.80;;;3.23;;
39094;SDS011;24840;47.508;19.376;2023-02-26T00:06:20;7.10;;;3.60;;
39094;SDS011;24840;47.508;19.376;2023-02-26T00:08:46;3.17;;;2.53;;
39094;SDS011;24840;47.508;19.376;2023-02-26T00:11:12;4.57;;;3.13;;
39094;SDS011;24840;47.508;19.376;2023-02-26T00:13:39;4.87;;;3.43;;
39094;SDS011;24840;47.508;19.376;2023-02-26T00:18:50;4.13;;;3.03;;
39094;SDS011;24840;47.508;19.376;2023-02-26T00:21:17;3.90;;;2.80;;
39094;SDS011;24840;47.508;19.376;2023-02-26T00:23:44;4.73;;;2.97;;
39094;SDS011;24840;47.508;19.376;2023-02-26T00:26:10;3.50;;;2.70;;
39094;SDS011;24840;47.508;19.376;2023-02-26T00:28:38;6.20;;;3.10;;
39094;SDS011;24840;47.508;19.376;2023-02-26T00:31:04;4.60;;;3.23;;
39094;SDS011;24840;47.508;19.376;2023-02-26T00:33:30;4.23;;;3.10;;
39094;SDS011;24840;47.508;19.376;2023-02-26T00:39:00;5.60;;;3.50;;
39094;SDS011;24840;47.508;19.376;2023-02-26T00:41:31;4.83;;;3.10;;
39094;SDS011;24840;47.508;19.376;2023-02-26T00:46:44;6.23;;;3.93;;
39094;SDS011;24840;47.508;19.376;2023-02-26T00:52:16;4.60;;;3.40;;
39094;SDS011;24840;47.508;19.376;2023-02-26T00:54:52;5.90;;;3.77;;
39094;SDS011;24840;47.508;19.376;2023-02-26T00:57:17;5.50;;;4.53;;
39094;SDS011;24840;47.508;19.376;2023-02-26T00:59:43;7.73;;;5.13;;
39094;SDS011;24840;47.508;19.376;2023-02-26T01:02:09;5.97;;;4.77;;
39094;SDS011;24840;47.508;19.376;2023-02-26T01:04:35;7.83;;;5.63;;
39094;SDS011;24840;47.508;19.376;2023-02-26T01:07:01;9.67;;;5.37;;
39094;SDS011;24840;47.508;19.376;2023-02-26T01:11:59;6.33;;;5.40;;
39094;SDS011;24840;47.508;19.376;2023-02-26T01:14:31;6.13;;;5.27;;
39094;SDS011;24840;47.508;19.376;2023-02-26T01:19:54;8.17;;;5.00;;
39094;SDS011;24840;47.508;19.376;2023-02-26T01:22:32;7.13;;;4.70;;
39094;SDS011;24840;47.508;19.376;2023-02-26T01:25:08;7.40;;;4.93;;
39094;SDS011;24840;47.508;19.376;2023-02-26T01:27:40;5.50;;;3.80;;
39094;SDS011;24840;47.508;19.376;2023-02-26T01:30:06;5.30;;;3.73;;
39094;SDS011;24840;47.508;19.376;2023-02-26T01:43:43;4.83;;;3.20;;
39094;SDS011;24840;47.508;19.376;2023-02-26T01:46:27;5.63;;;3.47;;
39094;SDS011;24840;47.508;19.376;2023-02-26T01:49:14;4.47;;;3.23;;
39094;SDS011;24840;47.508;19.376;2023-02-26T01:54:13;7.03;;;3.83;;
39094;SDS011;24840;47.508;19.376;2023-02-26T01:56:41;4.70;;;3.63;;
39094;SDS011;24840;47.508;19.376;2023-02-26T01:59:10;4.67;;;3.67;;
39094;SDS011;24840;47.508;19.376;2023-02-26T02:01:40;4.90;;;3.43;;
39094;SDS011;24840;47.508;19.376;2023-02-26T02:04:06;4.80;;;3.77;;
39094;SDS011;24840;47.508;19.376;2023-02-26T02:06:37;4.23;;;2.73;;
39094;SDS011;24840;47.508;19.376;2023-02-26T02:09:05;4.20;;;3.40;;
39094;SDS011;24840;47.508;19.376;2023-02-26T02:11:33;3.53;;;2.90;;
39094;SDS011;24840;47.508;19.376;2023-02-26T02:14:08;3.33;;;2.63;;
39094;SDS011;24840;47.508;19.376;2023-02-26T02:28:40;4.67;;;3.80;;
39094;SDS011;24840;47.508;19.376;2023-02-26T02:31:21;3.77;;;3.03;;
39094;SDS011;24840;47.508;19.376;2023-02-26T02:33:59;4.83;;;3.30;;
39094;SDS011;24840;47.508;19.376;2023-02-26T02:36:44;4.10;;;3.20;;
39094;SDS011;24840;47.508;19.376;2023-02-26T02:39:36;7.10;;;3.85;;
39094;SDS011;24840;47.508;19.376;2023-02-26T02:45:19;3.13;;;2.63;;
39094;SDS011;24840;47.508;19.376;2023-02-26T02:47:52;4.67;;;3.23;;
39094;SDS011;24840;47.508;19.376;2023-02-26T02:50:25;4.45;;;2.30;;
39094;SDS011;24840;47.508;19.376;2023-02-26T02:56:09;4.67;;;2.53;;
39094;SDS011;24840;47.508;19.376;2023-02-26T02:58:42;3.97;;;2.90;;
39094;SDS011;24840;47.508;19.376;2023-02-26T03:01:17;3.20;;;2.47;;
39094;SDS011;24840;47.508;19.376;2023-02-26T03:03:49;5.23;;;2.60;;
39094;SDS011;24840;47.508;19.376;2023-02-26T03:06:20;5.37;;;3.53;;
39094;SDS011;24840;47.508;19.376;2023-02-26T03:08:46;4.60;;;2.90;;
39094;SDS011;24840;47.508;19.376;2023-02-26T03:11:13;6.03;;;3.33;;
39094;SDS011;24840;47.508;19.376;2023-02-26T03:13:39;10.80;;;3.50;;
39094;SDS011;24840;47.508;19.376;2023-02-26T03:26:46;4.53;;;3.00;;
39094;SDS011;24840;47.508;19.376;2023-02-26T03:29:21;3.70;;;2.73;;
39094;SDS011;24840;47.508;19.376;2023-02-26T03:35:17;3.67;;;2.53;;
39094;SDS011;24840;47.508;19.376;2023-02-26T03:38:11;2.80;;;2.20;;
39094;SDS011;24840;47.508;19.376;2023-02-26T03:40:55;3.43;;;2.63;;
39094;SDS011;24840;47.508;19.376;2023-02-26T03:46:04;4.20;;;3.17;;
39094;SDS011;24840;47.508;19.376;2023-02-26T03:48:33;3.50;;;2.67;;
39094;SDS011;24840;47.508;19.376;2023-02-26T03:54:03;3.30;;;2.53;;
39094;SDS011;24840;47.508;19.376;2023-02-26T03:56:39;4.93;;;3.10;;
39094;SDS011;24840;47.508;19.376;2023-02-26T03:59:07;3.80;;;3.07;;
39094;SDS011;24840;47.508;19.376;2023-02-26T04:01:35;4.20;;;3.10;;
39094;SDS011;24840;47.508;19.376;2023-02-26T04:07:06;3.30;;;2.37;;
39094;SDS011;24840;47.508;19.376;2023-02-26T04:09:34;2.67;;;1.93;;
39094;SDS011;24840;47.508;19.376;2023-02-26T04:12:00;3.00;;;2.70;;
39094;SDS011;24840;47.508;19.376;2023-02-26T04:14:25;4.37;;;3.03;;
39094;SDS011;24840;47.508;19.376;2023-02-26T04:16:51;3.07;;;2.00;;
39094;SDS011;24840;47.508;19.376;2023-02-26T04:19:17;4.00;;;2.33;;
39094;SDS011;24840;47.508;19.376;2023-02-26T04:21:42;3.87;;;2.50;;
39094;SDS011;24840;47.508;19.376;2023-02-26T04:24:09;3.30;;;2.33;;
39094;SDS011;24840;47.508;19.376;2023-02-26T04:26:35;3.33;;;2.10;;
39094;SDS011;24840;47.508;19.376;2023-02-26T04:29:00;2.43;;;1.83;;
39094;SDS011;24840;47.508;19.376;2023-02-26T04:31:26;2.97;;;2.10;;
39094;SDS011;24840;47.508;19.376;2023-02-26T04:33:52;3.30;;;2.23;;
39094;SDS011;24840;47.508;19.376;2023-02-26T04:36:18;3.20;;;2.17;;
39094;SDS011;24840;47.508;19.376;2023-02-26T04:38:44;2.70;;;2.20;;
39094;SDS011;24840;47.508;19.376;2023-02-26T04:41:10;2.40;;;1.87;;
39094;SDS011;24840;47.508;19.376;2023-02-26T04:43:36;2.43;;;2.23;;
39094;SDS011;24840;47.508;19.376;2023-02-26T04:46:02;3.13;;;2.80;;
39094;SDS011;24840;47.508;19.376;2023-02-26T04:48:28;4.33;;;2.90;;
39094;SDS011;24840;47.508;19.376;2023-02-26T04:50:53;2.07;;;1.87;;
39094;SDS011;24840;47.508;19.376;2023-02-26T04:53:19;3.43;;;3.07;;
39094;SDS011;24840;47.508;19.376;2023-02-26T04:55:46;3.77;;;2.73;;
39094;SDS011;24840;47.508;19.376;2023-02-26T04:58:13;6.00;;;3.90;;
39094;SDS011;24840;47.508;19.376;2023-02-26T05:00:39;4.00;;;3.30;;
39094;SDS011;24840;47.508;19.376;2023-02-26T05:03:04;4.63;;;3.50;;
39094;SDS011;24840;47.508;19.376;2023-02-26T05:05:30;3.37;;;2.60;;
39094;SDS011;24840;47.508;19.376;2023-02-26T05:07:56;5.30;;;3.53;;
39094;SDS011;24840;47.508;19.376;2023-02-26T05:10:23;5.87;;;3.43;;
39094;SDS011;24840;47.508;19.376;2023-02-26T05:12:49;4.47;;;3.90;;
39094;SDS011;24840;47.508;19.376;2023-02-26T05:15:15;4.07;;;3.60;;
39094;SDS011;24840;47.508;19.376;2023-02-26T05:17:41;6.00;;;3.93;;
39094;SDS011;24840;47.508;19.376;2023-02-26T05:20:07;4.60;;;3.33;;
39094;SDS011;24840;47.508;19.376;2023-02-26T05:22:35;5.23;;;4.07;;
39094;SDS011;24840;47.508;19.376;2023-02-26T05:25:02;7.57;;;4.20;;
39094;SDS011;24840;47.508;19.376;2023-02-26T05:27:29;4.97;;;3.53;;
39094;SDS011;24840;47.508;19.376;2023-02-26T05:29:55;4.27;;;3.87;;
39094;SDS011;24840;47.508;19.376;2023-02-26T05:32:20;4.77;;;4.13;;
39094;SDS011;24840;47.508;19.376;2023-02-26T05:34:46;4.33;;;3.77;;
39094;SDS011;24840;47.508;19.376;2023-02-26T05:37:12;4.67;;;3.33;;
39094;SDS011;24840;47.508;19.376;2023-02-26T05:39:38;5.47;;;4.43;;
39094;SDS011;24840;47.508;19.376;2023-02-26T05:42:05;7.70;;;4.47;;
39094;SDS011;24840;47.508;19.376;2023-02-26T05:44:31;5.87;;;4.40;;
39094;SDS011;24840;47.508;19.376;2023-02-26T05:47:04;4.87;;;4.37;;
39094;SDS011;24840;47.508;19.376;2023-02-26T05:49:30;4.63;;;4.03;;
39094;SDS011;24840;47.508;19.376;2023-02-26T05:51:55;8.47;;;4.07;;
39094;SDS011;24840;47.508;19.376;2023-02-26T05:54:21;7.27;;;4.73;;
39094;SDS011;24840;47.508;19.376;2023-02-26T05:56:47;5.77;;;4.67;;
39094;SDS011;24840;47.508;19.376;2023-02-26T05:59:13;5.10;;;3.90;;
39094;SDS011;24840;47.508;19.376;2023-02-26T06:01:38;6.37;;;4.43;;
39094;SDS011;24840;47.508;19.376;2023-02-26T06:04:04;5.87;;;4.67;;
39094;SDS011;24840;47.508;19.376;2023-02-26T06:06:31;7.97;;;4.50;;
39094;SDS011;24840;47.508;19.376;2023-02-26T06:08:57;8.17;;;4.90;;
39094;SDS011;24840;47.508;19.376;2023-02-26T06:11:25;5.37;;;4.33;;
39094;SDS011;24840;47.508;19.376;2023-02-26T06:13:51;8.40;;;5.80;;
39094;SDS011;24840;47.508;19.376;2023-02-26T06:16:16;5.23;;;4.70;;
39094;SDS011;24840;47.508;19.376;2023-02-26T06:18:44;7.53;;;4.53;;
39094;SDS011;24840;47.508;19.376;2023-02-26T06:21:12;6.23;;;4.33;;
39094;SDS011;24840;47.508;19.376;2023-02-26T06:23:38;6.80;;;5.07;;
39094;SDS011;24840;47.508;19.376;2023-02-26T06:26:04;6.10;;;5.37;;
39094;SDS011;24840;47.508;19.376;2023-02-26T06:28:31;7.27;;;5.13;;
39094;SDS011;24840;47.508;19.376;2023-02-26T06:30:58;6.53;;;4.30;;
39094;SDS011;24840;47.508;19.376;2023-02-26T06:33:24;5.87;;;4.90;;
39094;SDS011;24840;47.508;19.376;2023-02-26T06:35:49;5.23;;;4.30;;
39094;SDS011;24840;47.508;19.376;2023-02-26T06:38:16;8.73;;;4.87;;
39094;SDS011;24840;47.508;19.376;2023-02-26T06:40:42;8.77;;;5.60;;
39094;SDS011;24840;47.508;19.376;2023-02-26T06:43:08;6.93;;;4.83;;
39094;SDS011;24840;47.508;19.376;2023-02-26T06:45:34;6.77;;;4.80;;
39094;SDS011;24840;47.508;19.376;2023-02-26T06:48:00;8.37;;;5.20;;
39094;SDS011;24840;47.508;19.376;2023-02-26T06:50:26;8.43;;;5.37;;
39094;SDS011;24840;47.508;19.376;2023-02-26T06:52:57;8.03;;;5.17;;
39094;SDS011;24840;47.508;19.376;2023-02-26T06:55:23;6.97;;;5.13;;
39094;SDS011;24840;47.508;19.376;2023-02-26T06:57:53;6.73;;;5.17;;
39094;SDS011;24840;47.508;19.376;2023-02-26T07:00:19;6.70;;;5.43;;
39094;SDS011;24840;47.508;19.376;2023-02-26T07:02:45;7.53;;;5.63;;
39094;SDS011;24840;47.508;19.376;2023-02-26T07:05:11;7.00;;;5.53;;
39094;SDS011;24840;47.508;19.376;2023-02-26T07:07:37;8.47;;;5.90;;
39094;SDS011;24840;47.508;19.376;2023-02-26T07:10:03;6.93;;;5.33;;
39094;SDS011;24840;47.508;19.376;2023-02-26T07:12:29;5.97;;;5.30;;
39094;SDS011;24840;47.508;19.376;2023-02-26T07:14:55;7.10;;;5.57;;
39094;SDS011;24840;47.508;19.376;2023-02-26T07:17:21;6.93;;;5.63;;
39094;SDS011;24840;47.508;19.376;2023-02-26T07:19:48;7.77;;;6.77;;
39094;SDS011;24840;47.508;19.376;2023-02-26T07:22:15;8.60;;;6.00;;
39094;SDS011;24840;47.508;19.376;2023-02-26T07:24:42;8.43;;;5.37;;
39094;SDS011;24840;47.508;19.376;2023-02-26T07:27:08;7.90;;;6.03;;
39094;SDS011;24840;47.508;19.376;2023-02-26T07:29:34;7.37;;;5.57;;
39094;SDS011;24840;47.508;19.376;2023-02-26T07:32:00;10.23;;;7.03;;
39094;SDS011;24840;47.508;19.376;2023-02-26T07:34:26;7.53;;;6.00;;
39094;SDS011;24840;47.508;19.376;2023-02-26T07:36:54;10.70;;;7.30;;
39094;SDS011;24840;47.508;19.376;2023-02-26T07:39:20;9.87;;;6.90;;
39094;SDS011;24840;47.508;19.376;2023-02-26T07:41:47;8.17;;;5.93;;
39094;SDS011;24840;47.508;19.376;2023-02-26T07:44:13;9.30;;;6.67;;
39094;SDS011;24840;47.508;19.376;2023-02-26T07:46:39;9.93;;;5.77;;
39094;SDS011;24840;47.508;19.376;2023-02-26T07:49:04;8.13;;;5.60;;
39094;SDS011;24840;47.508;19.376;2023-02-26T07:51:30;9.07;;;5.67;;
39094;SDS011;24840;47.508;19.376;2023-02-26T07:53:56;8.20;;;5.47;;
39094;SDS011;24840;47.508;19.376;2023-02-26T07:56:22;9.23;;;5.67;;
39094;SDS011;24840;47.508;19.376;2023-02-26T07:58:47;9.03;;;5.70;;
39094;SDS011;24840;47.508;19.376;2023-02-26T08:01:13;10.20;;;6.20;;
39094;SDS011;24840;47.508;19.376;2023-02-26T08:03:39;15.73;;;5.53;;
39094;SDS011;24840;47.508;19.376;2023-02-26T08:06:05;6.77;;;4.90;;
39094;SDS011;24840;47.508;19.376;2023-02-26T08:08:40;6.73;;;5.03;;
39094;SDS011;24840;47.508;19.376;2023-02-26T08:11:06;10.83;;;4.80;;
39094;SDS011;24840;47.508;19.376;2023-02-26T08:13:31;8.87;;;5.37;;
39094;SDS011;24840;47.508;19.376;2023-02-26T08:15:57;5.60;;;4.27;;
39094;SDS011;24840;47.508;19.376;2023-02-26T08:18:30;9.67;;;5.10;;
39094;SDS011;24840;47.508;19.376;2023-02-26T08:20:59;12.00;;;5.53;;
39094;SDS011;24840;47.508;19.376;2023-02-26T08:23:25;6.93;;;4.23;;
39094;SDS011;24840;47.508;19.376;2023-02-26T08:25:58;4.87;;;3.60;;
39094;SDS011;24840;47.508;19.376;2023-02-26T08:28:35;5.07;;;3.87;;
39094;SDS011;24840;47.508;19.376;2023-02-26T08:31:01;9.87;;;5.40;;
39094;SDS011;24840;47.508;19.376;2023-02-26T08:33:28;10.10;;;4.90;;
39094;SDS011;24840;47.508;19.376;2023-02-26T08:35:54;15.07;;;5.90;;
39094;SDS011;24840;47.508;19.376;2023-02-26T08:38:25;11.57;;;6.00;;
39094;SDS011;24840;47.508;19.376;2023-02-26T08:40:54;8.77;;;4.70;;
39094;SDS011;24840;47.508;19.376;2023-02-26T08:43:20;5.63;;;4.07;;
39094;SDS011;24840;47.508;19.376;2023-02-26T08:45:46;6.87;;;4.20;;
39094;SDS011;24840;47.508;19.376;2023-02-26T08:48:12;6.43;;;4.80;;
39094;SDS011;24840;47.508;19.376;2023-02-26T08:50:38;6.97;;;4.90;;
39094;SDS011;24840;47.508;19.376;2023-02-26T08:53:04;7.43;;;4.90;;
39094;SDS011;24840;47.508;19.376;2023-02-26T08:55:30;3.70;;;3.10;;
39094;SDS011;24840;47.508;19.376;2023-02-26T08:57:56;5.03;;;2.63;;
39094;SDS011;24840;47.508;19.376;2023-02-26T09:00:22;5.37;;;3.20;;
39094;SDS011;24840;47.508;19.376;2023-02-26T09:02:48;5.07;;;3.27;;
39094;SDS011;24840;47.508;19.376;2023-02-26T09:05:14;9.90;;;4.20;;
39094;SDS011;24840;47.508;19.376;2023-02-26T09:07:40;5.07;;;3.07;;
39094;SDS011;24840;47.508;19.376;2023-02-26T09:10:07;7.53;;;3.33;;
39094;SDS011;24840;47.508;19.376;2023-02-26T09:12:33;7.23;;;2.80;;
39094;SDS011;24840;47.508;19.376;2023-02-26T09:15:05;3.80;;;2.87;;
39094;SDS011;24840;47.508;19.376;2023-02-26T09:17:32;5.27;;;3.37;;
39094;SDS011;24840;47.508;19.376;2023-02-26T09:19:58;7.73;;;3.60;;
39094;SDS011;24840;47.508;19.376;2023-02-26T09:22:24;4.10;;;2.90;;
39094;SDS011;24840;47.508;19.376;2023-02-26T09:24:50;4.87;;;3.10;;
39094;SDS011;24840;47.508;19.376;2023-02-26T09:27:16;6.10;;;3.30;;
39094;SDS011;24840;47.508;19.376;2023-02-26T09:29:42;4.87;;;3.30;;
39094;SDS011;24840;47.508;19.376;2023-02-26T09:32:10;4.73;;;3.50;;
39094;SDS011;24840;47.508;19.376;2023-02-26T09:34:37;5.40;;;3.47;;
39094;SDS011;24840;47.508;19.376;2023-02-26T09:37:06;4.90;;;3.20;;
39094;SDS011;24840;47.508;19.376;2023-02-26T09:39:33;3.50;;;2.90;;
39094;SDS011;24840;47.508;19.376;2023-02-26T09:44:38;5.60;;;2.97;;
39094;SDS011;24840;47.508;19.376;2023-02-26T09:47:11;4.20;;;3.80;;
39094;SDS011;24840;47.508;19.376;2023-02-26T09:52:26;6.83;;;4.53;;
39094;SDS011;24840;47.508;19.376;2023-02-26T09:54:57;5.28;;;4.68;;
39094;SDS011;24840;47.508;19.376;2023-02-26T09:57:35;5.83;;;4.57;;
39094;SDS011;24840;47.508;19.376;2023-02-26T10:00:06;7.43;;;5.03;;
39094;SDS011;24840;47.508;19.376;2023-02-26T10:06:31;6.17;;;5.23;;
39094;SDS011;24840;47.508;19.376;2023-02-26T10:12:15;5.97;;;5.07;;
39094;SDS011;24840;47.508;19.376;2023-02-26T10:20:55;4.17;;;3.57;;
39094;SDS011;24840;47.508;19.376;2023-02-26T10:23:24;5.50;;;4.13;;
39094;SDS011;24840;47.508;19.376;2023-02-26T10:28:49;5.47;;;4.13;;
39094;SDS011;24840;47.508;19.376;2023-02-26T10:35:02;4.67;;;3.20;;
39094;SDS011;24840;47.508;19.376;2023-02-26T10:43:10;5.27;;;4.20;;
39094;SDS011;24840;47.508;19.376;2023-02-26T10:50:33;4.03;;;3.63;;
39094;SDS011;24840;47.508;19.376;2023-02-26T10:53:00;3.33;;;3.03;;
39094;SDS011;24840;47.508;19.376;2023-02-26T10:58:21;6.07;;;3.70;;
39094;SDS011;24840;47.508;19.376;2023-02-26T11:00:50;4.15;;;3.80;;
39094;SDS011;24840;47.508;19.376;2023-02-26T11:03:27;4.63;;;4.00;;
39094;SDS011;24840;47.508;19.376;2023-02-26T11:06:18;4.60;;;3.70;;
39094;SDS011;24840;47.508;19.376;2023-02-26T11:08:50;4.40;;;4.07;;
39094;SDS011;24840;47.508;19.376;2023-02-26T11:11:36;4.53;;;4.20;;
39094;SDS011;24840;47.508;19.376;2023-02-26T11:14:05;6.60;;;5.87;;
39094;SDS011;24840;47.508;19.376;2023-02-26T11:16:32;6.87;;;6.17;;
39094;SDS011;24840;47.508;19.376;2023-02-26T11:18:59;5.87;;;5.27;;
39094;SDS011;24840;47.508;19.376;2023-02-26T11:21:27;7.10;;;6.40;;
39094;SDS011;24840;47.508;19.376;2023-02-26T11:23:57;7.03;;;6.20;;
39094;SDS011;24840;47.508;19.376;2023-02-26T11:26:33;7.60;;;6.80;;
39094;SDS011;24840;47.508;19.376;2023-02-26T11:29:01;7.60;;;6.83;;
39094;SDS011;24840;47.508;19.376;2023-02-26T11:31:28;8.13;;;5.67;;
39094;SDS011;24840;47.508;19.376;2023-02-26T11:34:04;6.40;;;5.80;;
39094;SDS011;24840;47.508;19.376;2023-02-26T11:36:32;7.83;;;6.50;;
39094;SDS011;24840;47.508;19.376;2023-02-26T11:39:04;6.13;;;5.53;;
39094;SDS011;24840;47.508;19.376;2023-02-26T11:41:43;5.70;;;5.20;;
39094;SDS011;24840;47.508;19.376;2023-02-26T11:44:19;7.47;;;6.17;;
39094;SDS011;24840;47.508;19.376;2023-02-26T11:46:56;8.48;;;6.28;;
39094;SDS011;24840;47.508;19.376;2023-02-26T11:52:03;5.10;;;4.10;;
39094;SDS011;24840;47.508;19.376;2023-02-26T11:54:36;6.23;;;4.70;;
39094;SDS011;24840;47.508;19.376;2023-02-26T11:57:05;6.17;;;5.37;;
39094;SDS011;24840;47.508;19.376;2023-02-26T11:59:32;6.57;;;4.20;;
39094;SDS011;24840;47.508;19.376;2023-02-26T12:02:41;6.10;;;4.30;;
39094;SDS011;24840;47.508;19.376;2023-02-26T12:04:54;4.70;;;4.13;;
39094;SDS011;24840;47.508;19.376;2023-02-26T12:07:22;5.73;;;4.63;;
39094;SDS011;24840;47.508;19.376;2023-02-26T12:09:48;7.03;;;4.73;;
39094;SDS011;24840;47.508;19.376;2023-02-26T12:12:33;7.40;;;4.70;;
39094;SDS011;24840;47.508;19.376;2023-02-26T12:26:34;4.60;;;3.27;;
39094;SDS011;24840;47.508;19.376;2023-02-26T12:37:48;3.80;;;2.40;;
39094;SDS011;24840;47.508;19.376;2023-02-26T12:40:43;2.93;;;2.33;;
39094;SDS011;24840;47.508;19.376;2023-02-26T13:10:00;5.83;;;2.90;;
39094;SDS011;24840;47.508;19.376;2023-02-26T13:18:11;5.97;;;3.07;;
39094;SDS011;24840;47.508;19.376;2023-02-26T13:20:39;6.50;;;3.53;;
39094;SDS011;24840;47.508;19.376;2023-02-26T13:23:13;3.67;;;3.17;;
39094;SDS011;24840;47.508;19.376;2023-02-26T13:31:14;8.03;;;4.07;;
39094;SDS011;24840;47.508;19.376;2023-02-26T13:34:03;5.78;;;3.63;;
39094;SDS011;24840;47.508;19.376;2023-02-26T13:36:36;4.70;;;3.60;;
39094;SDS011;24840;47.508;19.376;2023-02-26T13:41:52;5.83;;;4.03;;
39094;SDS011;24840;47.508;19.376;2023-02-26T13:44:57;4.70;;;3.47;;
39094;SDS011;24840;47.508;19.376;2023-02-26T13:56:41;5.47;;;4.10;;
39094;SDS011;24840;47.508;19.376;2023-02-26T14:02:00;4.23;;;3.83;;
39094;SDS011;24840;47.508;19.376;2023-02-26T14:04:29;6.10;;;4.57;;
39094;SDS011;24840;47.508;19.376;2023-02-26T14:06:59;6.87;;;4.10;;
39094;SDS011;24840;47.508;19.376;2023-02-26T14:15:30;6.15;;;5.47;;
39094;SDS011;24840;47.508;19.376;2023-02-26T14:17:40;6.83;;;5.37;;
39094;SDS011;24840;47.508;19.376;2023-02-26T14:22:44;8.40;;;6.20;;
39094;SDS011;24840;47.508;19.376;2023-02-26T14:28:20;6.47;;;5.77;;
39094;SDS011;24840;47.508;19.376;2023-02-26T14:33:31;6.22;;;4.38;;
39094;SDS011;24840;47.508;19.376;2023-02-26T14:36:28;39.97;;;6.65;;
39094;SDS011;24840;47.508;19.376;2023-02-26T14:38:56;6.10;;;4.33;;
39094;SDS011;24840;47.508;19.376;2023-02-26T14:41:30;8.23;;;4.63;;
39094;SDS011;24840;47.508;19.376;2023-02-26T14:44:13;6.55;;;5.00;;
39094;SDS011;24840;47.508;19.376;2023-02-26T14:46:42;9.45;;;5.45;;
39094;SDS011;24840;47.508;19.376;2023-02-26T14:49:32;7.13;;;5.37;;
39094;SDS011;24840;47.508;19.376;2023-02-26T15:23:59;7.73;;;5.80;;
39094;SDS011;24840;47.508;19.376;2023-02-26T15:26:30;7.70;;;5.43;;
39094;SDS011;24840;47.508;19.376;2023-02-26T15:28:59;5.23;;;3.83;;
39094;SDS011;24840;47.508;19.376;2023-02-26T15:31:38;6.33;;;4.47;;
39094;SDS011;24840;47.508;19.376;2023-02-26T15:34:18;7.93;;;4.30;;
39094;SDS011;24840;47.508;19.376;2023-02-26T15:36:45;8.37;;;5.13;;
39094;SDS011;24840;47.508;19.376;2023-02-26T15:39:16;8.50;;;5.20;;
39094;SDS011;24840;47.508;19.376;2023-02-26T15:41:45;7.83;;;5.10;;
39094;SDS011;24840;47.508;19.376;2023-02-26T15:44:20;8.30;;;5.17;;
39094;SDS011;24840;47.508;19.376;2023-02-26T15:46:52;9.37;;;6.03;;
39094;SDS011;24840;47.508;19.376;2023-02-26T15:49:26;7.57;;;5.20;;
39094;SDS011;24840;47.508;19.376;2023-02-26T15:52:00;10.90;;;6.07;;
39094;SDS011;24840;47.508;19.376;2023-02-26T15:54:32;9.93;;;5.67;;
39094;SDS011;24840;47.508;19.376;2023-02-26T15:57:08;10.73;;;6.37;;
39094;SDS011;24840;47.508;19.376;2023-02-26T15:59:36;10.13;;;7.23;;
39094;SDS011;24840;47.508;19.376;2023-02-26T16:02:26;10.90;;;6.67;;
39094;SDS011;24840;47.508;19.376;2023-02-26T16:07:51;8.93;;;5.90;;
39094;SDS011;24840;47.508;19.376;2023-02-26T16:10:26;9.13;;;6.40;;
39094;SDS011;24840;47.508;19.376;2023-02-26T16:12:58;11.17;;;6.43;;
39094;SDS011;24840;47.508;19.376;2023-02-26T16:15:32;8.80;;;5.47;;
39094;SDS011;24840;47.508;19.376;2023-02-26T16:20:35;7.97;;;5.17;;
39094;SDS011;24840;47.508;19.376;2023-02-26T16:23:15;6.57;;;4.47;;
39094;SDS011;24840;47.508;19.376;2023-02-26T16:25:52;8.60;;;6.03;;
39094;SDS011;24840;47.508;19.376;2023-02-26T16:28:40;9.43;;;5.93;;
39094;SDS011;24840;47.508;19.376;2023-02-26T16:31:20;7.50;;;5.67;;
39094;SDS011;24840;47.508;19.376;2023-02-26T16:33:53;7.40;;;5.40;;
39094;SDS011;24840;47.508;19.376;2023-02-26T16:36:23;9.00;;;6.40;;
39094;SDS011;24840;47.508;19.376;2023-02-26T16:39:04;10.93;;;6.40;;
39094;SDS011;24840;47.508;19.376;2023-02-26T16:41:59;9.20;;;7.20;;
39094;SDS011;24840;47.508;19.376;2023-02-26T16:46:59;9.80;;;7.37;;
39094;SDS011;24840;47.508;19.376;2023-02-26T16:49:32;18.03;;;8.67;;
39094;SDS011;24840;47.508;19.376;2023-02-26T16:52:00;23.80;;;12.33;;
39094;SDS011;24840;47.508;19.376;2023-02-26T16:54:30;21.60;;;12.33;;
39094;SDS011;24840;47.508;19.376;2023-02-26T16:57:05;19.37;;;11.27;;
39094;SDS011;24840;47.508;19.376;2023-02-26T16:59:37;24.27;;;11.90;;
39094;SDS011;24840;47.508;19.376;2023-02-26T17:02:11;19.13;;;10.27;;
39094;SDS011;24840;47.508;19.376;2023-02-26T17:04:44;13.50;;;8.90;;
39094;SDS011;24840;47.508;19.376;2023-02-26T17:07:36;15.43;;;9.20;;
39094;SDS011;24840;47.508;19.376;2023-02-26T17:10:17;13.83;;;9.47;;
39094;SDS011;24840;47.508;19.376;2023-02-26T17:13:00;14.77;;;9.97;;
39094;SDS011;24840;47.508;19.376;2023-02-26T17:15:46;14.32;;;9.57;;
39094;SDS011;24840;47.508;19.376;2023-02-26T17:18:13;18.60;;;11.43;;
39094;SDS011;24840;47.508;19.376;2023-02-26T17:20:38;15.20;;;10.37;;
39094;SDS011;24840;47.508;19.376;2023-02-26T17:25:38;15.02;;;10.30;;
39094;SDS011;24840;47.508;19.376;2023-02-26T17:28:06;16.70;;;9.33;;
39094;SDS011;24840;47.508;19.376;2023-02-26T17:30:54;18.77;;;11.30;;
39094;SDS011;24840;47.508;19.376;2023-02-26T17:33:20;14.47;;;10.13;;
39094;SDS011;24840;47.508;19.376;2023-02-26T17:35:46;13.07;;;8.27;;
39094;SDS011;24840;47.508;19.376;2023-02-26T17:38:12;11.53;;;8.13;;
39094;SDS011;24840;47.508;19.376;2023-02-26T17:40:40;12.37;;;8.57;;
39094;SDS011;24840;47.508;19.376;2023-02-26T17:43:08;11.50;;;7.23;;
39094;SDS011;24840;47.508;19.376;2023-02-26T17:45:34;11.67;;;8.20;;
39094;SDS011;24840;47.508;19.376;2023-02-26T17:48:03;9.30;;;6.73;;
39094;SDS011;24840;47.508;19.376;2023-02-26T17:53:18;9.93;;;7.03;;
39094;SDS011;24840;47.508;19.376;2023-02-26T17:55:45;9.67;;;6.63;;
39094;SDS011;24840;47.508;19.376;2023-02-26T17:58:35;14.07;;;8.97;;
39094;SDS011;24840;47.508;19.376;2023-02-26T18:01:01;17.60;;;13.30;;
39094;SDS011;24840;47.508;19.376;2023-02-26T18:03:28;10.63;;;6.53;;
39094;SDS011;24840;47.508;19.376;2023-02-26T18:05:54;7.03;;;4.90;;
39094;SDS011;24840;47.508;19.376;2023-02-26T18:08:30;8.33;;;5.80;;
39094;SDS011;24840;47.508;19.376;2023-02-26T18:11:00;8.33;;;5.20;;
39094;SDS011;24840;47.508;19.376;2023-02-26T18:13:26;9.43;;;7.63;;
39094;SDS011;24840;47.508;19.376;2023-02-26T18:15:54;8.67;;;6.73;;
39094;SDS011;24840;47.508;19.376;2023-02-26T18:18:22;7.33;;;5.63;;
39094;SDS011;24840;47.508;19.376;2023-02-26T18:20:50;8.57;;;5.23;;
39094;SDS011;24840;47.508;19.376;2023-02-26T18:23:17;6.70;;;4.93;;
39094;SDS011;24840;47.508;19.376;2023-02-26T18:25:47;7.10;;;4.53;;
39094;SDS011;24840;47.508;19.376;2023-02-26T18:28:16;8.38;;;4.88;;
39094;SDS011;24840;47.508;19.376;2023-02-26T18:30:47;7.83;;;5.47;;
39094;SDS011;24840;47.508;19.376;2023-02-26T18:33:23;9.27;;;5.63;;
39094;SDS011;24840;47.508;19.376;2023-02-26T18:35:50;9.00;;;5.87;;
39094;SDS011;24840;47.508;19.376;2023-02-26T18:38:20;5.33;;;4.13;;
39094;SDS011;24840;47.508;19.376;2023-02-26T18:40:49;7.90;;;5.17;;
39094;SDS011;24840;47.508;19.376;2023-02-26T18:43:15;7.37;;;5.57;;
39094;SDS011;24840;47.508;19.376;2023-02-26T18:45:41;7.10;;;4.80;;
39094;SDS011;24840;47.508;19.376;2023-02-26T18:48:09;7.13;;;4.30;;
39094;SDS011;24840;47.508;19.376;2023-02-26T18:53:22;8.60;;;5.07;;
39094;SDS011;24840;47.508;19.376;2023-02-26T18:55:48;7.00;;;4.30;;
39094;SDS011;24840;47.508;19.376;2023-02-26T18:58:15;8.73;;;6.23;;